Time;durP1;ratioP1;P1;durP2;ratioP2;P2;SDS_P1;SDS_P2;PMS_P1;PMS_P2;Temp;Humidity;BMP_temperature;BMP_pressure;BME280_temperature;BME280_humidity;BME280_pressure;Samples;Min_cycle;Max_cycle;Signal;HPM_P1;HPM_P2
2023/02/21 02:14:41;;;;;;;78.53;34.40;;;8.80;99.90;;;;;;6274906;22;20010;-84
2023/02/21 02:17:25;;;;;;;70.00;32.15;;;8.80;99.90;;;;;;6274612;22;20043;-83
2023/02/21 02:20:31;;;;;;;71.82;32.58;;;8.80;99.90;;;;;;6247184;22;20094;-84
2023/02/21 02:23:14;;;;;;;79.60;35.53;;;8.80;99.90;;;;;;6274330;22;20049;-84
2023/02/21 02:26:13;;;;;;;74.70;31.88;;;8.80;99.90;;;;;;6274797;22;20445;-83
2023/02/21 02:29:01;;;;;;;76.38;36.08;;;8.80;99.90;;;;;;6273357;22;20008;-84
2023/02/21 02:32:03;;;;;;;83.03;35.65;;;8.70;99.90;;;;;;6273638;22;20007;-84
2023/02/21 02:34:47;;;;;;;81.28;35.83;;;8.70;99.90;;;;;;6273651;22;20014;-84
2023/02/21 02:37:20;;;;;;;78.25;33.33;;;8.70;99.90;;;;;;6247535;22;20084;-83
2023/02/21 02:39:59;;;;;;;77.50;34.50;;;8.70;99.90;;;;;;6248182;22;20007;-84
2023/02/21 02:42:39;;;;;;;76.45;33.75;;;8.70;99.90;;;;;;6274252;22;20086;-85
2023/02/21 02:45:23;;;;;;;77.35;34.08;;;8.70;99.90;;;;;;6247723;22;20366;-84
2023/02/21 02:47:56;;;;;;;81.78;36.75;;;8.70;99.90;;;;;;6275049;22;20006;-84
2023/02/21 02:50:23;;;;;;;79.90;35.08;;;8.70;99.90;;;;;;6247619;22;20003;-84
2023/02/21 02:52:51;;;;;;;87.93;37.25;;;8.70;99.90;;;;;;6247924;22;20007;-83
2023/02/21 02:55:23;;;;;;;80.07;34.13;;;8.70;99.90;;;;;;6247561;22;20337;-84
2023/02/21 02:57:50;;;;;;;84.20;35.55;;;8.70;99.90;;;;;;6247531;22;20004;-84
2023/02/21 03:00:17;;;;;;;84.38;34.85;;;8.70;99.90;;;;;;6247449;22;20015;-84
2023/02/21 03:03:06;;;;;;;86.28;36.22;;;8.70;99.90;;;;;;6247862;22;20004;-84
2023/02/21 03:05:56;;;;;;;90.40;36.40;;;8.70;99.90;;;;;;6247622;22;20194;-84
2023/02/21 03:08:29;;;;;;;84.60;36.63;;;8.70;99.90;;;;;;6247162;22;20018;-84
2023/02/21 03:11:02;;;;;;;89.32;35.70;;;8.70;99.90;;;;;;6247721;22;20010;-84
2023/02/21 03:13:42;;;;;;;97.53;37.22;;;8.70;99.90;;;;;;6274945;22;20002;-84
2023/02/21 03:16:23;;;;;;;90.00;36.70;;;8.70;99.90;;;;;;6247418;22;20004;-84
2023/02/21 03:18:53;;;;;;;95.28;37.58;;;8.70;99.90;;;;;;6247179;22;20008;-84
2023/02/21 03:21:29;;;;;;;94.68;37.83;;;8.70;99.90;;;;;;6247355;22;20505;-84
2023/02/21 03:23:59;;;;;;;88.28;35.20;;;8.70;99.90;;;;;;6247769;22;20429;-84
2023/02/21 03:26:29;;;;;;;91.97;37.40;;;8.70;99.90;;;;;;6246980;22;20003;-84
2023/02/21 03:28:55;;;;;;;95.47;38.92;;;8.70;99.90;;;;;;6248057;22;20012;-84
2023/02/21 03:31:26;;;;;;;87.10;35.45;;;8.70;99.90;;;;;;6246588;22;20004;-84
2023/02/21 03:33:53;;;;;;;91.55;36.13;;;8.70;99.90;;;;;;6247749;22;20007;-84
2023/02/21 03:36:19;;;;;;;96.88;37.00;;;8.70;99.90;;;;;;6247547;22;20437;-84
2023/02/21 03:38:45;;;;;;;89.50;36.30;;;8.70;99.90;;;;;;6247319;22;20008;-84
2023/02/21 03:41:11;;;;;;;87.45;35.40;;;8.70;99.90;;;;;;6246680;22;20448;-83
2023/02/21 03:43:37;;;;;;;89.90;36.75;;;8.70;99.90;;;;;;6247363;22;20079;-84
2023/02/21 03:46:02;;;;;;;89.47;36.28;;;8.70;99.90;;;;;;6247030;22;20032;-84
2023/02/21 03:48:28;;;;;;;95.57;38.13;;;8.70;99.90;;;;;;6248429;22;20007;-84
2023/02/21 03:50:53;;;;;;;90.43;37.45;;;8.60;99.90;;;;;;6247539;22;20003;-84
2023/02/21 03:53:19;;;;;;;90.35;36.53;;;8.70;99.90;;;;;;6274713;22;19996;-84
2023/02/21 03:55:44;;;;;;;96.85;37.42;;;8.60;99.90;;;;;;6247946;22;20008;-84
2023/02/21 03:58:10;;;;;;;86.75;34.95;;;8.60;99.90;;;;;;6274419;22;19992;-84
2023/02/21 04:00:35;;;;;;;102.57;39.25;;;8.60;99.90;;;;;;6248069;22;20012;-84
2023/02/21 04:03:01;;;;;;;95.00;35.88;;;8.60;99.90;;;;;;6247295;22;20329;-84
2023/02/21 04:05:27;;;;;;;98.10;39.45;;;8.60;99.90;;;;;;6247127;22;20016;-84
2023/02/21 04:07:52;;;;;;;100.70;38.65;;;8.60;99.90;;;;;;6247081;22;20079;-84
2023/02/21 04:10:18;;;;;;;90.10;36.35;;;8.60;99.90;;;;;;6247173;22;20083;-84
2023/02/21 04:12:43;;;;;;;105.25;37.10;;;8.60;99.90;;;;;;6247950;22;20024;-84
2023/02/21 04:15:10;;;;;;;104.10;38.10;;;8.60;99.90;;;;;;6247510;22;20023;-84
2023/02/21 04:17:36;;;;;;;102.78;36.85;;;8.60;99.90;;;;;;6247861;22;20027;-84
2023/02/21 04:20:02;;;;;;;105.28;38.13;;;8.60;99.90;;;;;;6247633;22;20401;-84
2023/02/21 04:22:27;;;;;;;106.15;39.30;;;8.60;99.90;;;;;;6248478;22;20008;-84
2023/02/21 04:24:53;;;;;;;111.25;40.97;;;8.60;99.90;;;;;;6247683;22;20444;-84
2023/02/21 04:27:18;;;;;;;117.30;41.50;;;8.60;99.90;;;;;;6248744;22;20489;-85
2023/02/21 04:29:44;;;;;;;119.65;41.00;;;8.50;99.90;;;;;;6249350;22;20007;-84
2023/02/21 04:32:10;;;;;;;116.05;41.72;;;8.50;99.90;;;;;;6248915;22;20000;-84
2023/02/21 04:34:35;;;;;;;106.68;39.92;;;8.60;99.90;;;;;;6249490;22;20003;-84
2023/02/21 04:37:01;;;;;;;120.93;40.38;;;8.50;99.90;;;;;;6248706;22;20385;-84
2023/02/21 04:39:26;;;;;;;114.15;41.67;;;8.50;99.90;;;;;;6249127;22;20008;-84
2023/02/21 04:41:52;;;;;;;114.35;41.63;;;8.50;99.90;;;;;;6249406;22;20027;-84
2023/02/21 04:44:17;;;;;;;111.22;39.90;;;8.50;99.90;;;;;;6249015;22;20131;-85
2023/02/21 04:46:43;;;;;;;109.22;39.65;;;8.50;99.90;;;;;;6248906;22;19996;-85
2023/02/21 04:49:11;;;;;;;113.72;41.10;;;8.50;99.90;;;;;;6248821;22;20329;-85
2023/02/21 04:51:36;;;;;;;111.30;41.20;;;8.50;99.90;;;;;;6249254;22;20418;-85
2023/02/21 04:54:02;;;;;;;114.63;41.13;;;8.50;99.90;;;;;;6276065;22;19996;-84
2023/02/21 04:56:28;;;;;;;116.15;40.20;;;8.50;99.90;;;;;;6249226;22;20000;-84
2023/02/21 04:58:54;;;;;;;105.13;38.70;;;8.50;99.90;;;;;;6249172;22;20004;-84
2023/02/21 05:01:20;;;;;;;109.53;39.38;;;8.50;99.90;;;;;;6248823;22;20008;-84
2023/02/21 05:03:47;;;;;;;118.05;38.55;;;8.50;99.90;;;;;;6248668;22;20402;-83
2023/02/21 05:06:17;;;;;;;107.32;39.17;;;8.50;99.90;;;;;;6249173;22;20008;-84
2023/02/21 05:08:43;;;;;;;112.38;37.80;;;8.50;99.90;;;;;;6248454;22;20014;-84
2023/02/21 05:11:08;;;;;;;104.93;39.28;;;8.50;99.90;;;;;;6248380;22;20074;-84
2023/02/21 05:13:34;;;;;;;106.97;38.25;;;8.50;99.90;;;;;;6247987;22;20094;-84
2023/02/21 05:16:00;;;;;;;108.07;37.85;;;8.50;99.90;;;;;;6247848;22;20082;-84
2023/02/21 05:18:27;;;;;;;125.40;41.65;;;8.50;99.90;;;;;;6247738;22;20023;-84
2023/02/21 05:20:53;;;;;;;95.25;36.10;;;8.50;99.90;;;;;;6248267;22;20518;-84
2023/02/21 05:23:32;;;;;;;109.20;39.63;;;8.50;99.90;;;;;;6248429;22;20330;-85
2023/02/21 05:26:00;;;;;;;114.82;40.95;;;8.50;99.90;;;;;;6248510;22;20791;-84
2023/02/21 05:28:25;;;;;;;110.35;38.20;;;8.50;99.90;;;;;;6248066;22;20053;-85
2023/02/21 05:30:51;;;;;;;102.97;37.42;;;8.50;99.90;;;;;;6274865;22;20007;-84
2023/02/21 05:33:16;;;;;;;109.03;38.60;;;8.50;99.90;;;;;;6247966;22;20003;-85
2023/02/21 05:35:42;;;;;;;112.13;38.97;;;8.50;99.90;;;;;;6249049;22;20030;-84
2023/02/21 05:38:08;;;;;;;111.13;40.03;;;8.50;99.90;;;;;;6248340;22;20049;-85
2023/02/21 05:40:33;;;;;;;117.25;41.20;;;8.50;99.90;;;;;;6248139;22;20000;-84
2023/02/21 05:42:59;;;;;;;113.43;39.78;;;8.40;99.90;;;;;;6274822;22;20004;-84
2023/02/21 05:45:24;;;;;;;105.05;38.53;;;8.50;99.90;;;;;;6246702;22;20107;-85
2023/02/21 05:47:50;;;;;;;119.65;40.15;;;8.50;99.90;;;;;;6274284;22;20004;-85
2023/02/21 05:50:15;;;;;;;111.18;37.60;;;8.50;99.90;;;;;;6248663;22;20042;-84
2023/02/21 05:52:41;;;;;;;92.68;35.92;;;8.50;99.90;;;;;;6249282;22;20042;-84
2023/02/21 05:55:06;;;;;;;102.63;35.72;;;8.50;99.90;;;;;;6250093;22;20039;-84
2023/02/21 05:57:38;;;;;;;111.38;38.50;;;8.50;99.90;;;;;;6249973;22;20347;-84
2023/02/21 06:00:04;;;;;;;106.88;37.63;;;8.40;99.90;;;;;;6249217;22;20007;-84
2023/02/21 06:02:29;;;;;;;104.95;36.38;;;8.50;99.90;;;;;;6247959;22;20000;-84
2023/02/21 06:04:55;;;;;;;109.05;37.42;;;8.50;99.90;;;;;;6249044;22;20319;-85
2023/02/21 06:07:20;;;;;;;107.85;36.67;;;8.50;99.90;;;;;;6249163;22;20007;-84
2023/02/21 06:09:46;;;;;;;95.22;35.30;;;8.50;99.90;;;;;;6249049;22;20008;-85
2023/02/21 06:12:11;;;;;;;99.68;36.80;;;8.50;99.90;;;;;;6274421;22;20056;-85
2023/02/21 06:14:37;;;;;;;78.95;29.42;;;8.50;99.90;;;;;;6247829;22;20010;-85
2023/02/21 06:17:02;;;;;;;92.53;33.20;;;8.40;99.90;;;;;;6248538;22;19999;-85
2023/02/21 06:19:28;;;;;;;98.28;35.30;;;8.40;99.90;;;;;;6247998;22;20027;-85
2023/02/21 06:21:53;;;;;;;94.53;35.33;;;8.40;99.90;;;;;;6247310;22;20027;-85
2023/02/21 06:24:19;;;;;;;73.60;28.65;;;8.40;99.90;;;;;;6247839;22;20036;-85
2023/02/21 06:26:44;;;;;;;93.20;32.80;;;8.40;99.90;;;;;;6247864;22;20461;-85
2023/02/21 06:29:11;;;;;;;96.88;35.33;;;8.30;99.90;;;;;;6249505;22;19999;-85
2023/02/21 06:31:36;;;;;;;79.22;31.20;;;8.30;99.90;;;;;;6247297;22;20021;-85
2023/02/21 06:34:02;;;;;;;92.57;33.92;;;8.40;99.90;;;;;;6275948;22;20442;-84
2023/02/21 06:36:28;;;;;;;90.32;34.35;;;8.40;99.90;;;;;;6250227;22;20003;-85
2023/02/21 06:38:56;;;;;;;98.18;34.53;;;8.40;99.90;;;;;;6249922;22;20011;-84
2023/02/21 06:41:27;;;;;;;99.28;34.28;;;8.40;99.90;;;;;;6248552;22;20000;-85
2023/02/21 06:43:54;;;;;;;94.07;34.47;;;8.40;99.90;;;;;;6248182;22;20030;-84
2023/02/21 06:46:22;;;;;;;90.03;31.67;;;8.40;99.90;;;;;;6248045;22;20000;-85
2023/02/21 06:48:48;;;;;;;103.70;34.75;;;8.40;99.90;;;;;;6248506;22;20004;-84
2023/02/21 06:51:14;;;;;;;119.38;36.83;;;8.40;99.90;;;;;;6247164;22;20002;-85
2023/02/21 06:53:41;;;;;;;116.88;37.63;;;8.40;99.90;;;;;;6247557;22;20006;-84
2023/02/21 06:56:07;;;;;;;121.22;38.22;;;8.40;99.90;;;;;;6247198;22;20049;-84
2023/02/21 06:58:33;;;;;;;119.85;36.97;;;8.40;99.90;;;;;;6274956;22;20000;-85
2023/02/21 07:00:59;;;;;;;110.93;33.92;;;8.40;99.90;;;;;;6246211;22;20000;-85
2023/02/21 07:03:24;;;;;;;105.13;33.92;;;8.40;99.90;;;;;;6274169;22;20008;-85
2023/02/21 07:05:50;;;;;;;123.80;37.42;;;8.40;99.90;;;;;;6247218;22;20007;-85
2023/02/21 07:08:15;;;;;;;114.90;37.20;;;8.40;99.90;;;;;;6247721;22;19996;-85
2023/02/21 07:10:41;;;;;;;116.38;37.13;;;8.40;99.90;;;;;;6247907;22;20014;-83
2023/02/21 07:13:06;;;;;;;114.53;35.40;;;8.50;99.90;;;;;;6246984;22;19999;-85
2023/02/21 07:15:32;;;;;;;124.55;37.78;;;8.40;99.90;;;;;;6247853;22;20007;-84
2023/02/21 07:17:57;;;;;;;126.53;38.97;;;8.40;99.90;;;;;;6274833;22;20394;-84
2023/02/21 07:20:23;;;;;;;122.53;38.08;;;8.50;99.90;;;;;;6248516;22;20020;-85
2023/02/21 07:22:49;;;;;;;116.90;38.00;;;8.50;99.90;;;;;;6248546;22;20312;-85
2023/02/21 07:25:16;;;;;;;122.15;38.03;;;8.40;99.90;;;;;;6248753;22;20060;-85
2023/02/21 07:27:42;;;;;;;113.20;36.92;;;8.50;99.90;;;;;;6248798;22;20440;-84
2023/02/21 07:30:09;;;;;;;100.18;32.65;;;8.50;99.90;;;;;;6249147;22;20039;-85
2023/02/21 07:32:34;;;;;;;98.45;34.17;;;8.50;99.90;;;;;;6249317;22;20015;-85
2023/02/21 07:35:00;;;;;;;123.03;37.53;;;8.50;99.90;;;;;;6249496;22;20440;-84
2023/02/21 07:37:26;;;;;;;120.60;36.70;;;8.50;99.90;;;;;;6249415;22;20482;-84
2023/02/21 07:39:52;;;;;;;118.18;37.92;;;8.50;99.90;;;;;;6249715;22;20010;-85
2023/02/21 07:42:17;;;;;;;127.18;39.75;;;8.50;99.90;;;;;;6275912;22;20082;-85
2023/02/21 07:44:43;;;;;;;133.27;39.97;;;8.50;99.90;;;;;;6276237;22;20019;-85
2023/02/21 07:47:09;;;;;;;125.43;37.28;;;8.50;99.90;;;;;;6248977;22;20091;-84
2023/02/21 07:49:39;;;;;;;112.05;35.95;;;8.50;99.90;;;;;;6249579;22;20011;-84
2023/02/21 07:52:06;;;;;;;97.78;33.13;;;8.50;99.90;;;;;;6276079;22;20452;-85
2023/02/21 07:54:32;;;;;;;108.85;34.97;;;8.50;99.90;;;;;;6248603;22;20082;-85
2023/02/21 07:56:57;;;;;;;109.63;33.95;;;8.50;99.90;;;;;;6278084;22;20000;-85
2023/02/21 07:59:23;;;;;;;103.57;34.35;;;8.50;99.90;;;;;;6250500;22;20311;-85
2023/02/21 08:01:49;;;;;;;104.20;34.13;;;8.50;99.90;;;;;;6250781;22;20007;-85
2023/02/21 08:04:19;;;;;;;100.28;32.45;;;8.50;99.90;;;;;;6251055;22;20007;-85
2023/02/21 08:06:45;;;;;;;105.55;35.30;;;8.50;99.90;;;;;;6251696;22;20012;-85
2023/02/21 08:09:11;;;;;;;110.88;35.20;;;8.50;99.90;;;;;;6251204;22;20311;-85
2023/02/21 08:11:38;;;;;;;121.20;36.85;;;8.50;99.90;;;;;;6278149;22;20278;-85
2023/02/21 08:14:04;;;;;;;104.05;31.92;;;8.50;99.90;;;;;;6277915;22;20368;-85
2023/02/21 08:16:29;;;;;;;114.65;34.85;;;8.50;99.90;;;;;;6277486;22;20019;-84
2023/02/21 08:18:55;;;;;;;92.30;31.48;;;8.60;99.90;;;;;;6250230;22;20129;-85
2023/02/21 08:21:21;;;;;;;106.68;32.65;;;8.50;99.90;;;;;;6250878;22;20004;-84
2023/02/21 08:23:46;;;;;;;89.47;30.90;;;8.50;99.90;;;;;;6250763;22;20014;-84
2023/02/21 08:26:12;;;;;;;89.57;30.83;;;8.60;99.90;;;;;;6250712;22;20118;-84
2023/02/21 08:28:37;;;;;;;81.47;28.48;;;8.60;99.90;;;;;;6251040;22;20018;-85
2023/02/21 08:31:03;;;;;;;95.38;29.55;;;8.60;99.90;;;;;;6251210;22;20014;-85
2023/02/21 08:33:29;;;;;;;77.28;24.95;;;8.60;99.90;;;;;;6251173;22;20003;-85
2023/02/21 08:35:54;;;;;;;84.22;25.70;;;8.60;99.90;;;;;;6251056;22;20364;-85
2023/02/21 08:38:20;;;;;;;80.45;26.85;;;8.60;99.90;;;;;;6251046;22;20354;-84
2023/02/21 08:40:46;;;;;;;80.35;27.05;;;8.60;99.90;;;;;;6250894;22;20014;-85
2023/02/21 08:43:11;;;;;;;64.72;24.63;;;8.60;99.90;;;;;;6250351;22;20026;-85
2023/02/21 08:45:37;;;;;;;75.25;23.92;;;8.60;99.90;;;;;;6249312;22;20115;-85
2023/02/21 08:48:03;;;;;;;75.05;25.35;;;8.60;99.90;;;;;;6250862;22;20146;-85
2023/02/21 08:50:29;;;;;;;84.90;28.80;;;8.70;99.90;;;;;;6250063;22;20046;-84
2023/02/21 08:52:55;;;;;;;67.95;24.27;;;8.70;99.90;;;;;;6249576;22;20054;-85
2023/02/21 08:55:21;;;;;;;71.82;25.45;;;8.70;99.90;;;;;;6248197;22;20008;-85
2023/02/21 08:57:48;;;;;;;73.63;24.60;;;8.70;99.90;;;;;;6249404;22;20010;-85
2023/02/21 09:00:15;;;;;;;66.55;24.48;;;8.70;99.90;;;;;;6249147;22;20011;-84
2023/02/21 09:02:40;;;;;;;68.68;24.08;;;8.70;99.90;;;;;;6247677;22;20075;-84
2023/02/21 09:05:14;;;;;;;64.80;23.35;;;8.70;99.90;;;;;;6248455;22;20043;-84
2023/02/21 09:07:40;;;;;;;70.78;25.40;;;8.70;99.90;;;;;;6249093;22;20067;-85
2023/02/21 09:10:08;;;;;;;80.22;26.17;;;8.70;99.90;;;;;;6250042;22;20014;-84
2023/02/21 09:12:34;;;;;;;72.38;23.58;;;8.70;99.90;;;;;;6250727;22;20433;-85
2023/02/21 09:15:00;;;;;;;76.97;24.33;;;8.70;99.90;;;;;;6248629;22;20031;-85
2023/02/21 09:17:25;;;;;;;75.78;24.23;;;8.70;99.90;;;;;;6249851;22;20007;-85
2023/02/21 09:19:51;;;;;;;65.15;21.98;;;8.70;99.90;;;;;;6250146;22;20023;-85
2023/02/21 09:22:17;;;;;;;61.85;21.85;;;8.70;99.90;;;;;;6249799;22;20014;-85
2023/02/21 09:24:43;;;;;;;69.75;22.88;;;8.70;99.90;;;;;;6249633;22;20008;-84
2023/02/21 09:27:08;;;;;;;74.75;23.35;;;8.70;99.90;;;;;;6248604;22;20003;-84
2023/02/21 09:29:35;;;;;;;64.43;22.30;;;8.70;99.90;;;;;;6249412;22;20104;-84
2023/02/21 09:32:02;;;;;;;62.63;21.30;;;8.70;99.90;;;;;;6247314;22;20485;-84
2023/02/21 09:34:28;;;;;;;59.28;20.75;;;8.80;99.90;;;;;;6246639;22;20601;-85
2023/02/21 09:36:54;;;;;;;56.58;19.17;;;8.80;99.90;;;;;;6248032;22;20049;-84
2023/02/21 09:39:21;;;;;;;68.47;20.25;;;8.80;99.90;;;;;;6248600;22;20405;-84
2023/02/21 09:41:48;;;;;;;71.00;21.95;;;8.90;99.90;;;;;;6248944;22;19995;-84
2023/02/21 09:44:20;;;;;;;59.60;20.08;;;8.90;99.90;;;;;;6247617;22;20015;-85
2023/02/21 09:46:53;;;;;;;54.20;19.00;;;8.90;99.90;;;;;;6247398;22;20004;-84
2023/02/21 09:49:30;;;;;;;56.22;20.05;;;8.90;99.90;;;;;;6245206;22;20098;-84
2023/02/21 09:51:58;;;;;;;60.35;20.65;;;8.90;99.90;;;;;;6247720;22;20315;-84
2023/02/21 09:54:34;;;;;;;62.30;19.52;;;8.90;99.90;;;;;;6245293;22;20646;-85
2023/02/21 09:57:04;;;;;;;58.30;20.27;;;9.00;99.90;;;;;;6247038;22;20071;-85
2023/02/21 09:59:31;;;;;;;54.88;18.73;;;9.00;99.90;;;;;;6247192;22;20003;-85
2023/02/21 10:02:08;;;;;;;56.75;19.25;;;9.00;99.90;;;;;;6275506;22;20114;-84
2023/02/21 10:05:01;;;;;;;53.15;19.33;;;9.00;99.90;;;;;;6248469;22;20085;-84
2023/02/21 10:07:55;;;;;;;50.47;18.27;;;9.10;99.90;;;;;;6275530;22;20004;-85
2023/02/21 10:10:47;;;;;;;50.25;17.77;;;9.00;99.90;;;;;;6247702;22;20004;-86
2023/02/21 10:13:38;;;;;;;58.33;19.75;;;9.10;99.90;;;;;;6247158;22;20083;-85
2023/02/21 10:16:20;;;;;;;52.03;18.30;;;9.20;99.90;;;;;;6247838;22;20008;-84
2023/02/21 10:19:08;;;;;;;54.87;18.80;;;9.30;99.90;;;;;;6247873;22;20004;-84
2023/02/21 10:21:37;;;;;;;54.67;18.45;;;9.30;99.90;;;;;;6248681;22;20253;-85
2023/02/21 10:24:18;;;;;;;48.63;18.70;;;9.40;99.90;;;;;;6247058;22;20010;-85
2023/02/21 10:27:11;;;;;;;47.05;17.75;;;9.30;99.90;;;;;;6246329;22;20007;-85
2023/02/21 10:29:54;;;;;;;50.90;16.80;;;9.30;99.90;;;;;;6275712;22;20341;-85
2023/02/21 10:32:23;;;;;;;40.28;13.70;;;9.30;99.90;;;;;;6247681;22;20027;-85
2023/02/21 10:34:49;;;;;;;42.95;15.60;;;9.30;99.90;;;;;;6248189;22;20000;-84
2023/02/21 10:37:33;;;;;;;40.35;15.15;;;9.30;99.90;;;;;;6275113;22;20007;-85
2023/02/21 10:40:21;;;;;;;37.83;14.18;;;9.30;99.90;;;;;;6248089;22;19996;-84
2023/02/21 10:42:53;;;;;;;43.20;14.13;;;9.30;99.90;;;;;;6266568;22;20030;-85
2023/02/21 10:45:23;;;;;;;39.88;12.68;;;9.30;99.90;;;;;;6246925;22;20024;-84
2023/02/21 10:47:59;;;;;;;39.97;13.73;;;9.30;99.90;;;;;;6247534;22;20334;-85
2023/02/21 10:50:51;;;;;;;42.53;15.43;;;9.30;99.90;;;;;;6247794;22;20004;-85
2023/02/21 10:53:22;;;;;;;49.63;16.95;;;9.20;99.90;;;;;;6248013;22;20010;-84
2023/02/21 10:56:20;;;;;;;40.97;13.73;;;9.30;99.90;;;;;;6248399;22;20066;-84
2023/02/21 10:58:59;;;;;;;40.30;13.32;;;9.30;99.90;;;;;;6275100;22;20004;-85
2023/02/21 11:01:31;;;;;;;40.38;14.90;;;9.20;99.90;;;;;;6247640;22;20376;-84
2023/02/21 11:04:00;;;;;;;42.88;14.45;;;9.20;99.90;;;;;;6246887;22;20052;-83
2023/02/21 11:06:43;;;;;;;45.20;15.52;;;9.20;99.90;;;;;;6247613;22;20012;-84
2023/02/21 11:09:40;;;;;;;41.63;15.07;;;9.30;99.90;;;;;;6247989;22;20007;-85
2023/02/21 11:12:19;;;;;;;39.17;13.80;;;9.30;99.90;;;;;;6274193;22;20337;-84
2023/02/21 11:15:16;;;;;;;39.75;14.18;;;9.30;99.90;;;;;;6248288;22;20003;-84
2023/02/21 11:17:44;;;;;;;38.15;12.73;;;9.30;99.90;;;;;;6265183;22;20008;-85
2023/02/21 11:20:17;;;;;;;36.88;13.38;;;9.30;99.90;;;;;;6274357;22;20529;-85
2023/02/21 11:22:48;;;;;;;36.53;12.95;;;9.20;99.90;;;;;;6247889;22;20130;-85
2023/02/21 11:25:31;;;;;;;39.80;13.90;;;9.20;99.90;;;;;;6247390;22;20073;-85
2023/02/21 11:28:08;;;;;;;37.22;13.38;;;9.20;99.90;;;;;;6248024;22;20011;-85
2023/02/21 11:30:37;;;;;;;36.53;12.75;;;9.20;99.90;;;;;;6247487;22;20066;-85
2023/02/21 11:33:04;;;;;;;33.72;12.80;;;9.20;99.90;;;;;;6247077;22;20007;-84
2023/02/21 11:35:44;;;;;;;36.92;13.60;;;9.20;99.90;;;;;;6272768;22;20050;-85
2023/02/21 11:38:34;;;;;;;34.42;11.48;;;9.20;99.90;;;;;;6271815;22;20414;-85
2023/02/21 11:41:01;;;;;;;36.05;13.77;;;9.10;99.90;;;;;;6247922;22;20008;-84
2023/02/21 11:43:31;;;;;;;40.00;14.05;;;9.10;99.90;;;;;;6248024;22;20003;-85
2023/02/21 11:46:06;;;;;;;40.42;13.52;;;9.10;99.90;;;;;;6273747;22;20453;-85
2023/02/21 11:48:56;;;;;;;36.85;14.35;;;9.10;99.90;;;;;;6248457;22;20004;-85
2023/02/21 11:51:48;;;;;;;41.13;14.75;;;9.00;99.90;;;;;;6249000;22;20101;-84
2023/02/21 11:54:14;;;;;;;36.23;13.37;;;9.10;99.90;;;;;;6249066;22;20073;-84
2023/02/21 11:56:55;;;;;;;36.28;14.27;;;9.10;99.90;;;;;;6276326;22;20684;-85
2023/02/21 11:59:40;;;;;;;37.70;13.73;;;9.10;99.90;;;;;;6248527;22;20462;-84
2023/02/21 12:02:43;;;;;;;34.65;13.65;;;9.20;99.90;;;;;;6276899;22;20000;-85
2023/02/21 12:05:11;;;;;;;39.55;14.25;;;9.30;99.90;;;;;;6248239;22;20016;-85
2023/02/21 12:08:06;;;;;;;30.67;12.88;;;9.30;99.90;;;;;;6249182;22;19996;-85
2023/02/21 12:10:39;;;;;;;38.95;14.52;;;9.30;99.90;;;;;;6247527;22;20433;-84
2023/02/21 12:13:26;;;;;;;40.05;13.98;;;9.30;99.90;;;;;;6274512;22;20000;-85
2023/02/21 12:16:21;;;;;;;36.95;13.95;;;9.30;99.90;;;;;;6246059;22;19999;-85
2023/02/21 12:19:29;;;;;;;34.80;14.00;;;9.40;99.90;;;;;;6248231;22;20421;-85
2023/02/21 12:22:20;;;;;;;38.10;13.57;;;9.40;99.90;;;;;;6246125;22;20086;-86
2023/02/21 12:25:24;;;;;;;38.80;14.95;;;9.40;99.90;;;;;;6247230;22;20015;-86
2023/02/21 12:27:54;;;;;;;41.53;15.07;;;9.40;99.90;;;;;;6181916;23;20001;-86
2023/02/21 12:30:44;;;;;;;37.30;14.77;;;9.40;99.90;;;;;;6233337;22;20058;-86
2023/02/21 12:33:27;;;;;;;34.38;12.90;;;9.50;99.90;;;;;;6275070;22;20069;-86
2023/02/21 12:36:14;;;;;;;37.25;13.85;;;9.50;99.90;;;;;;6247266;22;20003;-86
2023/02/21 12:39:04;;;;;;;39.00;14.57;;;9.50;99.90;;;;;;6246576;22;20034;-85
2023/02/21 12:41:43;;;;;;;37.30;13.70;;;9.60;99.90;;;;;;6270258;22;20057;-86
2023/02/21 12:44:37;;;;;;;36.30;14.50;;;9.60;99.90;;;;;;6246505;22;20007;-86
2023/02/21 12:47:09;;;;;;;39.58;13.65;;;9.60;99.90;;;;;;6275435;22;20032;-87
2023/02/21 12:49:48;;;;;;;28.95;12.40;;;9.70;99.90;;;;;;6249471;22;20013;-86
2023/02/21 12:52:29;;;;;;;35.70;13.90;;;9.80;99.90;;;;;;6248892;22;20053;-86
2023/02/21 12:55:03;;;;;;;38.22;14.65;;;9.90;99.90;;;;;;6249165;22;20000;-86
2023/02/21 12:57:40;;;;;;;32.47;13.32;;;9.90;99.90;;;;;;6276923;22;20000;-86
2023/02/21 13:00:30;;;;;;;27.90;11.82;;;9.90;99.90;;;;;;6249081;22;20027;-86
2023/02/21 13:03:33;;;;;;;35.80;14.85;;;10.00;99.90;;;;;;6249070;22;20110;-86
2023/02/21 13:06:08;;;;;;;33.08;13.63;;;9.90;99.90;;;;;;6249552;22;20050;-86
2023/02/21 13:09:10;;;;;;;34.10;14.05;;;9.90;99.90;;;;;;6249356;22;20000;-86
2023/02/21 13:11:53;;;;;;;33.47;13.27;;;9.80;99.90;;;;;;6249178;22;20007;-86
2023/02/21 13:14:40;;;;;;;36.13;14.27;;;9.80;99.90;;;;;;6248020;22;20061;-85
2023/02/21 13:17:10;;;;;;;37.40;14.65;;;9.80;99.90;;;;;;6250559;22;20014;-86
2023/02/21 13:19:45;;;;;;;31.80;13.75;;;9.80;99.90;;;;;;6251245;22;20081;-86
2023/02/21 13:22:31;;;;;;;37.67;14.30;;;9.90;99.90;;;;;;6250680;22;20007;-85
2023/02/21 13:25:08;;;;;;;34.97;13.25;;;9.80;99.90;;;;;;6277085;22;20007;-86
2023/02/21 13:27:47;;;;;;;32.53;14.20;;;9.80;99.90;;;;;;6250812;22;20446;-86
2023/02/21 13:30:26;;;;;;;34.40;13.65;;;9.70;99.90;;;;;;6277713;22;20326;-86
2023/02/21 13:32:58;;;;;;;34.95;14.52;;;9.70;99.90;;;;;;6249702;22;20003;-84
2023/02/21 13:35:36;;;;;;;33.80;13.30;;;9.70;99.90;;;;;;6249712;22;20008;-86
2023/02/21 13:38:06;;;;;;;34.28;14.68;;;9.70;99.90;;;;;;6249450;22;20007;-86
2023/02/21 13:40:54;;;;;;;36.83;14.02;;;9.70;99.90;;;;;;6248939;22;20031;-86
2023/02/21 13:43:30;;;;;;;36.35;13.90;;;9.70;99.90;;;;;;6247764;22;20012;-87
2023/02/21 13:46:22;;;;;;;34.55;15.50;;;9.80;99.90;;;;;;6250065;22;20019;-87
2023/02/21 13:49:26;;;;;;;32.13;13.55;;;9.80;99.90;;;;;;6250785;22;20004;-87
2023/02/21 13:51:51;;;;;;;29.40;13.15;;;9.90;99.90;;;;;;6275733;22;20011;-87
2023/02/21 13:54:24;;;;;;;31.38;13.20;;;9.90;99.90;;;;;;6249334;22;20035;-87
2023/02/21 13:56:51;;;;;;;30.65;12.45;;;10.00;99.90;;;;;;6276971;22;20018;-86
2023/02/21 13:59:22;;;;;;;31.05;13.75;;;10.00;99.90;;;;;;6276916;22;20000;-86
2023/02/21 14:01:49;;;;;;;29.73;13.75;;;10.00;99.90;;;;;;6249418;22;20000;-87
2023/02/21 14:04:52;;;;;;;25.60;12.18;;;10.00;99.90;;;;;;6249149;22;20088;-87
2023/02/21 14:07:39;;;;;;;29.60;12.98;;;10.10;99.90;;;;;;6274938;22;19999;-86
2023/02/21 14:10:29;;;;;;;29.20;13.15;;;10.10;99.90;;;;;;6275368;22;20004;-86
2023/02/21 14:12:59;;;;;;;27.38;12.50;;;10.20;99.90;;;;;;6250187;22;20740;-87
2023/02/21 14:15:36;;;;;;;30.05;13.18;;;10.10;99.90;;;;;;6250556;22;20004;-85
2023/02/21 14:18:02;;;;;;;25.85;12.30;;;10.10;99.90;;;;;;6249928;22;20004;-86
2023/02/21 14:20:27;;;;;;;26.05;12.32;;;10.10;99.90;;;;;;6278126;22;20016;-86
2023/02/21 14:22:57;;;;;;;31.40;13.57;;;10.10;99.90;;;;;;6250825;22;20004;-87
2023/02/21 14:25:26;;;;;;;28.15;12.55;;;10.20;99.90;;;;;;6250925;22;20037;-88
2023/02/21 14:27:52;;;;;;;32.72;12.35;;;10.20;99.90;;;;;;6250608;22;20007;-86
2023/02/21 14:30:31;;;;;;;27.95;12.60;;;10.10;99.90;;;;;;6250320;22;20010;-87
2023/02/21 14:33:20;;;;;;;27.45;12.75;;;10.10;99.90;;;;;;6249856;22;20003;-87
2023/02/21 14:35:59;;;;;;;29.15;12.52;;;10.10;99.90;;;;;;6277103;22;20506;-86
2023/02/21 14:38:31;;;;;;;23.20;11.32;;;10.00;99.90;;;;;;6276981;22;19996;-87
2023/02/21 14:41:23;;;;;;;26.30;11.38;;;10.00;99.90;;;;;;6250463;22;20008;-84
2023/02/21 14:43:57;;;;;;;25.50;11.25;;;10.00;99.90;;;;;;6251000;22;20430;-87
2023/02/21 14:47:09;;;;;;;22.98;11.20;;;9.90;99.90;;;;;;6250490;22;20011;-87
2023/02/21 14:50:10;;;;;;;24.35;10.95;;;9.90;99.90;;;;;;6251339;22;20003;-87
2023/02/21 14:52:56;;;;;;;24.42;11.40;;;9.90;99.90;;;;;;6251065;22;20035;-84
2023/02/21 14:55:49;;;;;;;23.55;10.55;;;9.90;99.90;;;;;;6250513;22;20069;-87
2023/02/21 14:58:55;;;;;;;22.77;10.70;;;9.80;99.90;;;;;;6277438;22;20011;-87
2023/02/21 15:01:31;;;;;;;23.63;11.52;;;9.80;99.90;;;;;;6174526;22;20006;-86
2023/02/21 15:04:21;;;;;;;22.90;10.57;;;9.80;99.90;;;;;;6248529;22;20051;-87
2023/02/21 15:07:25;;;;;;;22.08;9.88;;;9.80;99.90;;;;;;6249425;22;20398;-86
2023/02/21 15:10:05;;;;;;;20.35;9.77;;;9.80;99.90;;;;;;6247727;22;20425;-84
2023/02/21 15:12:34;;;;;;;21.52;10.07;;;9.70;99.90;;;;;;6248060;22;20003;-86
2023/02/21 15:15:00;;;;;;;20.75;10.52;;;9.70;99.90;;;;;;6249833;22;20000;-85
2023/02/21 15:17:26;;;;;;;21.20;9.90;;;9.80;99.90;;;;;;6247313;22;20002;-86